sensor_id;sensor_type;location;lat;lon;timestamp;pressure;altitude;pressure_sealevel;temperature;humidity
37694;BME280;23531;50.122;8.644;2023-02-04T00:00:01;101880.81;;;9.77;62.89
37694;BME280;23531;50.122;8.644;2023-02-04T00:02:03;101886.50;;;9.82;62.71
37694;BME280;23531;50.122;8.644;2023-02-04T00:04:04;101891.53;;;9.86;62.94
37694;BME280;23531;50.122;8.644;2023-02-04T00:06:06;101889.00;;;9.84;62.16
37694;BME280;23531;50.122;8.644;2023-02-04T00:08:09;101885.16;;;9.78;62.65
37694;BME280;23531;50.122;8.644;2023-02-04T00:10:10;101893.22;;;9.78;62.16
37694;BME280;23531;50.122;8.644;2023-02-04T00:12:12;101890.88;;;9.75;62.52
37694;BME280;23531;50.122;8.644;2023-02-04T00:14:13;101892.56;;;9.76;62.53
37694;BME280;23531;50.122;8.644;2023-02-04T00:16:14;101893.56;;;9.75;62.33
37694;BME280;23531;50.122;8.644;2023-02-04T00:18:16;101899.25;;;9.72;62.26
37694;BME280;23531;50.122;8.644;2023-02-04T00:20:17;101889.72;;;9.70;62.28
37694;BME280;23531;50.122;8.644;2023-02-04T00:22:18;101894.91;;;9.71;62.24
37694;BME280;23531;50.122;8.644;2023-02-04T00:24:21;101901.63;;;9.75;62.29
37694;BME280;23531;50.122;8.644;2023-02-04T00:26:23;101904.63;;;9.72;62.08
37694;BME280;23531;50.122;8.644;2023-02-04T00:28:24;101897.25;;;9.74;61.86
37694;BME280;23531;50.122;8.644;2023-02-04T00:30:25;101906.84;;;9.69;61.90
37694;BME280;23531;50.122;8.644;2023-02-04T00:32:27;101906.00;;;9.68;61.78
37694;BME280;23531;50.122;8.644;2023-02-04T00:34:28;101906.47;;;9.72;61.80
37694;BME280;23531;50.122;8.644;2023-02-04T00:36:29;101906.47;;;9.72;61.95
37694;BME280;23531;50.122;8.644;2023-02-04T00:38:31;101901.44;;;9.77;61.82
37694;BME280;23531;50.122;8.644;2023-02-04T00:40:33;101904.78;;;9.71;61.64
37694;BME280;23531;50.122;8.644;2023-02-04T00:42:34;101903.97;;;9.54;61.03
37694;BME280;23531;50.122;8.644;2023-02-04T00:44:36;101907.34;;;9.56;61.61
37694;BME280;23531;50.122;8.644;2023-02-04T00:46:37;101907.00;;;9.67;61.50
37694;BME280;23531;50.122;8.644;2023-02-04T00:48:38;101906.00;;;9.68;61.43
37694;BME280;23531;50.122;8.644;2023-02-04T00:50:40;101909.34;;;9.62;61.60
37694;BME280;23531;50.122;8.644;2023-02-04T00:52:42;101898.28;;;9.57;61.33
37694;BME280;23531;50.122;8.644;2023-02-04T00:54:43;101915.56;;;9.63;61.88
37694;BME280;23531;50.122;8.644;2023-02-04T00:56:46;101907.00;;;9.59;61.15
37694;BME280;23531;50.122;8.644;2023-02-04T00:58:47;101907.50;;;9.63;61.16
37694;BME280;23531;50.122;8.644;2023-02-04T01:00:49;101905.47;;;9.65;61.25
37694;BME280;23531;50.122;8.644;2023-02-04T01:02:50;101915.91;;;9.68;61.25
37694;BME280;23531;50.122;8.644;2023-02-04T01:04:51;101919.25;;;9.70;60.62
37694;BME280;23531;50.122;8.644;2023-02-04T01:06:53;101915.22;;;9.66;60.99
37694;BME280;23531;50.122;8.644;2023-02-04T01:08:54;101917.59;;;9.69;61.41
37694;BME280;23531;50.122;8.644;2023-02-04T01:10:55;101926.28;;;9.63;61.08
37694;BME280;23531;50.122;8.644;2023-02-04T01:12:58;101927.13;;;9.63;60.84
37694;BME280;23531;50.122;8.644;2023-02-04T01:14:59;101934.34;;;9.63;60.68
37694;BME280;23531;50.122;8.644;2023-02-04T01:17:01;101931.00;;;9.69;60.67
37694;BME280;23531;50.122;8.644;2023-02-04T01:19:02;101934.19;;;9.64;60.42
37694;BME280;23531;50.122;8.644;2023-02-04T01:21:04;101935.19;;;9.63;60.68
37694;BME280;23531;50.122;8.644;2023-02-04T01:23:05;101935.19;;;9.63;60.63
37694;BME280;23531;50.122;8.644;2023-02-04T01:25:07;101940.88;;;9.52;59.32
37694;BME280;23531;50.122;8.644;2023-02-04T01:27:10;101944.09;;;9.56;59.92
37694;BME280;23531;50.122;8.644;2023-02-04T01:29:12;101951.63;;;9.60;59.83
37694;BME280;23531;50.122;8.644;2023-02-04T01:31:14;101950.94;;;9.50;59.64
37694;BME280;23531;50.122;8.644;2023-02-04T01:33:15;101957.69;;;9.54;59.90
37694;BME280;23531;50.122;8.644;2023-02-04T01:35:19;101957.69;;;9.46;59.51
37694;BME280;23531;50.122;8.644;2023-02-04T01:37:20;101958.16;;;9.41;59.72
37694;BME280;23531;50.122;8.644;2023-02-04T01:39:22;101950.63;;;9.53;59.92
37694;BME280;23531;50.122;8.644;2023-02-04T01:41:23;101948.94;;;9.52;59.77
37694;BME280;23531;50.122;8.644;2023-02-04T01:43:25;101950.31;;;9.56;60.76
37694;BME280;23531;50.122;8.644;2023-02-04T01:45:28;101962.03;;;9.55;60.33
37694;BME280;23531;50.122;8.644;2023-02-04T01:47:32;101961.53;;;9.60;60.27
37694;BME280;23531;50.122;8.644;2023-02-04T01:49:34;101960.88;;;9.66;60.55
37694;BME280;23531;50.122;8.644;2023-02-04T01:51:35;101954.50;;;9.59;59.65
37694;BME280;23531;50.122;8.644;2023-02-04T01:53:37;101958.31;;;9.48;59.76
37694;BME280;23531;50.122;8.644;2023-02-04T01:55:39;101969.91;;;9.48;59.77
37694;BME280;23531;50.122;8.644;2023-02-04T01:57:40;101964.38;;;9.42;59.66
37694;BME280;23531;50.122;8.644;2023-02-04T01:59:42;101971.44;;;9.51;59.61
37694;BME280;23531;50.122;8.644;2023-02-04T02:01:45;101966.38;;;9.40;58.36
37694;BME280;23531;50.122;8.644;2023-02-04T02:03:47;101970.25;;;9.45;59.15
37694;BME280;23531;50.122;8.644;2023-02-04T02:05:49;101979.47;;;9.51;59.03
37694;BME280;23531;50.122;8.644;2023-02-04T02:07:53;101988.22;;;9.45;59.36
37694;BME280;23531;50.122;8.644;2023-02-04T02:09:55;101982.47;;;9.40;59.39
37694;BME280;23531;50.122;8.644;2023-02-04T02:11:56;101986.38;;;9.45;59.38
37694;BME280;23531;50.122;8.644;2023-02-04T02:13:58;101981.47;;;9.41;59.16
37694;BME280;23531;50.122;8.644;2023-02-04T02:16:00;101989.84;;;9.38;59.07
37694;BME280;23531;50.122;8.644;2023-02-04T02:18:02;101991.53;;;9.31;58.94
37694;BME280;23531;50.122;8.644;2023-02-04T02:20:04;101997.56;;;9.33;59.12
37694;BME280;23531;50.122;8.644;2023-02-04T02:22:09;101994.50;;;9.20;59.17
37694;BME280;23531;50.122;8.644;2023-02-04T02:26:35;101986.97;;;9.23;59.19
37694;BME280;23531;50.122;8.644;2023-02-04T02:28:36;101986.81;;;9.25;59.57
37694;BME280;23531;50.122;8.644;2023-02-04T02:30:37;101995.81;;;9.16;58.91
37694;BME280;23531;50.122;8.644;2023-02-04T02:32:39;101989.59;;;9.07;59.19
37694;BME280;23531;50.122;8.644;2023-02-04T02:34:41;101987.78;;;9.16;59.01
37694;BME280;23531;50.122;8.644;2023-02-04T02:36:43;101991.13;;;9.18;58.99
37694;BME280;23531;50.122;8.644;2023-02-04T02:38:44;101989.97;;;9.12;58.76
37694;BME280;23531;50.122;8.644;2023-02-04T02:40:45;101998.50;;;9.16;59.01
37694;BME280;23531;50.122;8.644;2023-02-04T02:42:49;102005.53;;;9.08;59.33
37694;BME280;23531;50.122;8.644;2023-02-04T02:44:52;102003.13;;;8.97;59.74
37694;BME280;23531;50.122;8.644;2023-02-04T02:46:53;102007.53;;;9.06;59.80
37694;BME280;23531;50.122;8.644;2023-02-04T02:48:55;102011.75;;;9.09;60.00
37694;BME280;23531;50.122;8.644;2023-02-04T02:50:56;102018.41;;;8.97;59.46
37694;BME280;23531;50.122;8.644;2023-02-04T02:52:58;102027.19;;;8.81;59.61
37694;BME280;23531;50.122;8.644;2023-02-04T02:54:59;102023.84;;;8.79;59.84
37694;BME280;23531;50.122;8.644;2023-02-04T02:57:01;102031.34;;;9.01;60.32
37694;BME280;23531;50.122;8.644;2023-02-04T02:59:12;102027.38;;;9.14;59.48
37694;BME280;23531;50.122;8.644;2023-02-04T03:01:14;102031.25;;;9.19;59.49
37694;BME280;23531;50.122;8.644;2023-02-04T03:03:17;102033.44;;;9.24;59.55
37694;BME280;23531;50.122;8.644;2023-02-04T03:05:21;102027.63;;;9.36;59.40
37694;BME280;23531;50.122;8.644;2023-02-04T03:07:23;102031.66;;;9.40;59.28
37694;BME280;23531;50.122;8.644;2023-02-04T03:09:24;102031.81;;;9.39;59.02
37694;BME280;23531;50.122;8.644;2023-02-04T03:11:26;102033.16;;;9.35;59.32
37694;BME280;23531;50.122;8.644;2023-02-04T03:13:29;102036.97;;;9.24;59.22
37694;BME280;23531;50.122;8.644;2023-02-04T03:15:31;102041.53;;;9.40;59.35
37694;BME280;23531;50.122;8.644;2023-02-04T03:17:33;102049.25;;;9.35;59.45
37694;BME280;23531;50.122;8.644;2023-02-04T03:19:34;102052.28;;;9.40;59.62
37694;BME280;23531;50.122;8.644;2023-02-04T03:21:36;102053.13;;;9.40;59.23
37694;BME280;23531;50.122;8.644;2023-02-04T03:23:38;102057.97;;;9.37;59.72
37694;BME280;23531;50.122;8.644;2023-02-04T03:25:39;102065.69;;;9.40;59.49
37694;BME280;23531;50.122;8.644;2023-02-04T03:27:41;102076.59;;;9.38;59.26
37694;BME280;23531;50.122;8.644;2023-02-04T03:29:42;102083.34;;;9.42;59.13
37694;BME280;23531;50.122;8.644;2023-02-04T03:31:45;102078.25;;;9.31;58.38
37694;BME280;23531;50.122;8.644;2023-02-04T03:33:47;102084.94;;;9.27;58.63
37694;BME280;23531;50.122;8.644;2023-02-04T03:35:48;102084.44;;;9.24;58.42
37694;BME280;23531;50.122;8.644;2023-02-04T03:37:50;102078.03;;;9.17;58.62
37694;BME280;23531;50.122;8.644;2023-02-04T03:39:51;102085.94;;;9.26;59.08
37694;BME280;23531;50.122;8.644;2023-02-04T03:41:53;102084.09;;;9.27;58.94
37694;BME280;23531;50.122;8.644;2023-02-04T03:43:54;102085.63;;;9.29;58.87
37694;BME280;23531;50.122;8.644;2023-02-04T03:45:56;102093.53;;;9.31;59.20
37694;BME280;23531;50.122;8.644;2023-02-04T03:47:58;102093.53;;;9.31;58.91
37694;BME280;23531;50.122;8.644;2023-02-04T03:49:59;102087.63;;;9.27;58.49
37694;BME280;23531;50.122;8.644;2023-02-04T03:52:01;102095.84;;;9.26;58.98
37694;BME280;23531;50.122;8.644;2023-02-04T03:54:03;102091.94;;;9.12;58.87
37694;BME280;23531;50.122;8.644;2023-02-04T03:56:04;102093.44;;;9.15;59.18
37694;BME280;23531;50.122;8.644;2023-02-04T03:58:05;102091.78;;;9.14;58.98
37694;BME280;23531;50.122;8.644;2023-02-04T04:00:07;102092.06;;;9.02;58.54
37694;BME280;23531;50.122;8.644;2023-02-04T04:02:09;102090.56;;;9.08;58.64
37694;BME280;23531;50.122;8.644;2023-02-04T04:04:11;102092.25;;;9.09;58.95
37694;BME280;23531;50.122;8.644;2023-02-04T04:06:13;102087.19;;;9.06;58.84
37694;BME280;23531;50.122;8.644;2023-02-04T04:08:14;102088.06;;;9.15;59.16
37694;BME280;23531;50.122;8.644;2023-02-04T04:10:15;102097.81;;;9.16;59.22
37694;BME280;23531;50.122;8.644;2023-02-04T04:12:17;102098.00;;;9.14;59.55
37694;BME280;23531;50.122;8.644;2023-02-04T04:14:18;102106.13;;;9.04;59.18
37694;BME280;23531;50.122;8.644;2023-02-04T04:16:19;102108.81;;;9.04;59.39
37694;BME280;23531;50.122;8.644;2023-02-04T04:18:21;102104.13;;;9.06;59.60
37694;BME280;23531;50.122;8.644;2023-02-04T04:20:23;102106.97;;;9.05;59.58
37694;BME280;23531;50.122;8.644;2023-02-04T04:22:27;102107.13;;;9.03;59.68
37694;BME280;23531;50.122;8.644;2023-02-04T04:24:28;102111.50;;;9.04;59.46
37694;BME280;23531;50.122;8.644;2023-02-04T04:26:29;102116.84;;;9.04;59.93
37694;BME280;23531;50.122;8.644;2023-02-04T04:28:31;102122.94;;;9.15;59.88
37694;BME280;23531;50.122;8.644;2023-02-04T04:30:32;102122.94;;;9.15;59.78
37694;BME280;23531;50.122;8.644;2023-02-04T04:32:33;102117.78;;;9.13;59.63
37694;BME280;23531;50.122;8.644;2023-02-04T04:34:34;102111.06;;;9.17;59.85
37694;BME280;23531;50.122;8.644;2023-02-04T04:36:37;102108.50;;;9.07;59.70
37694;BME280;23531;50.122;8.644;2023-02-04T04:38:38;102112.88;;;9.08;59.76
37694;BME280;23531;50.122;8.644;2023-02-04T04:40:40;102107.81;;;9.05;60.09
37694;BME280;23531;50.122;8.644;2023-02-04T04:42:41;102113.66;;;9.01;60.04
37694;BME280;23531;50.122;8.644;2023-02-04T04:44:43;102100.88;;;8.95;60.15
37694;BME280;23531;50.122;8.644;2023-02-04T04:46:44;102099.56;;;8.99;60.65
37694;BME280;23531;50.122;8.644;2023-02-04T04:48:45;102103.78;;;9.01;60.24
37694;BME280;23531;50.122;8.644;2023-02-04T04:50:47;102104.25;;;8.97;60.82
37694;BME280;23531;50.122;8.644;2023-02-04T04:52:49;102099.69;;;8.89;60.56
37694;BME280;23531;50.122;8.644;2023-02-04T04:54:50;102108.22;;;8.93;60.99
37694;BME280;23531;50.122;8.644;2023-02-04T04:56:52;102117.69;;;9.05;60.93
37694;BME280;23531;50.122;8.644;2023-02-04T04:58:53;102118.22;;;9.08;60.88
37694;BME280;23531;50.122;8.644;2023-02-04T05:00:54;102131.34;;;9.12;61.13
37694;BME280;23531;50.122;8.644;2023-02-04T05:02:56;102122.75;;;9.08;60.98
37694;BME280;23531;50.122;8.644;2023-02-04T05:04:57;102120.88;;;9.00;60.61
37694;BME280;23531;50.122;8.644;2023-02-04T05:06:58;102131.06;;;8.97;60.64
37694;BME280;23531;50.122;8.644;2023-02-04T05:09:01;102133.06;;;8.95;61.00
37694;BME280;23531;50.122;8.644;2023-02-04T05:11:02;102134.78;;;9.04;61.08
37694;BME280;23531;50.122;8.644;2023-02-04T05:13:04;102142.00;;;9.03;60.75
37694;BME280;23531;50.122;8.644;2023-02-04T05:15:05;102139.31;;;9.03;60.63
37694;BME280;23531;50.122;8.644;2023-02-04T05:17:07;102138.75;;;8.92;60.33
37694;BME280;23531;50.122;8.644;2023-02-04T05:19:08;102139.06;;;8.89;60.62
37694;BME280;23531;50.122;8.644;2023-02-04T05:21:09;102138.94;;;8.90;60.69
37694;BME280;23531;50.122;8.644;2023-02-04T05:23:11;102137.59;;;8.94;60.71
37694;BME280;23531;50.122;8.644;2023-02-04T05:25:13;102136.06;;;8.92;60.50
37694;BME280;23531;50.122;8.644;2023-02-04T05:27:15;102135.56;;;8.88;60.71
37694;BME280;23531;50.122;8.644;2023-02-04T05:29:17;102138.25;;;8.88;60.80
37694;BME280;23531;50.122;8.644;2023-02-04T05:31:18;102150.13;;;8.86;60.85
37694;BME280;23531;50.122;8.644;2023-02-04T05:33:19;102146.38;;;8.79;61.02
37694;BME280;23531;50.122;8.644;2023-02-04T05:35:21;102152.94;;;8.84;60.82
37694;BME280;23531;50.122;8.644;2023-02-04T05:37:22;102161.69;;;8.86;61.10
37694;BME280;23531;50.122;8.644;2023-02-04T05:39:23;102152.66;;;8.87;61.10
37694;BME280;23531;50.122;8.644;2023-02-04T05:41:26;102167.44;;;8.91;61.06
37694;BME280;23531;50.122;8.644;2023-02-04T05:43:27;102174.16;;;8.95;61.17
37694;BME280;23531;50.122;8.644;2023-02-04T05:45:28;102172.69;;;9.01;61.07
37694;BME280;23531;50.122;8.644;2023-02-04T05:47:30;102169.38;;;9.07;60.88
37694;BME280;23531;50.122;8.644;2023-02-04T05:49:31;102164.31;;;9.04;60.78
37694;BME280;23531;50.122;8.644;2023-02-04T05:51:32;102160.78;;;9.03;60.72
37694;BME280;23531;50.122;8.644;2023-02-04T05:53:34;102163.00;;;9.08;60.68
37694;BME280;23531;50.122;8.644;2023-02-04T05:55:35;102162.47;;;9.04;60.82
37694;BME280;23531;50.122;8.644;2023-02-04T05:57:37;102165.31;;;9.03;60.42
37694;BME280;23531;50.122;8.644;2023-02-04T05:59:39;102180.41;;;9.04;60.78
37694;BME280;23531;50.122;8.644;2023-02-04T06:01:40;102176.72;;;9.05;60.95
37694;BME280;23531;50.122;8.644;2023-02-04T06:03:41;102185.97;;;9.02;61.02
37694;BME280;23531;50.122;8.644;2023-02-04T06:05:43;102181.25;;;9.04;60.29
37694;BME280;23531;50.122;8.644;2023-02-04T06:07:44;102172.44;;;9.12;60.76
37694;BME280;23531;50.122;8.644;2023-02-04T06:09:45;102184.03;;;9.13;61.09
37694;BME280;23531;50.122;8.644;2023-02-04T06:11:47;102186.00;;;9.10;60.80
37694;BME280;23531;50.122;8.644;2023-02-04T06:13:49;102192.06;;;9.13;60.85
37694;BME280;23531;50.122;8.644;2023-02-04T06:15:51;102199.78;;;9.16;60.66
37694;BME280;23531;50.122;8.644;2023-02-04T06:17:52;102197.94;;;9.16;60.70
37694;BME280;23531;50.122;8.644;2023-02-04T06:19:53;102194.09;;;9.19;60.96
37694;BME280;23531;50.122;8.644;2023-02-04T06:21:54;102194.41;;;9.16;60.93
37694;BME280;23531;50.122;8.644;2023-02-04T06:23:56;102196.94;;;9.17;61.13
37694;BME280;23531;50.122;8.644;2023-02-04T06:25:57;102192.72;;;9.15;61.05
37694;BME280;23531;50.122;8.644;2023-02-04T06:27:59;102192.41;;;9.18;61.00
37694;BME280;23531;50.122;8.644;2023-02-04T06:30:02;102197.94;;;9.16;60.96
37694;BME280;23531;50.122;8.644;2023-02-04T06:32:03;102207.19;;;9.14;61.26
37694;BME280;23531;50.122;8.644;2023-02-04T06:34:04;102204.09;;;9.08;61.30
37694;BME280;23531;50.122;8.644;2023-02-04T06:36:06;102204.09;;;9.08;61.04
37694;BME280;23531;50.122;8.644;2023-02-04T06:38:07;102202.13;;;9.10;61.26
37694;BME280;23531;50.122;8.644;2023-02-04T06:40:09;102208.88;;;8.97;61.37
37694;BME280;23531;50.122;8.644;2023-02-04T06:42:10;102216.63;;;9.00;61.51
37694;BME280;23531;50.122;8.644;2023-02-04T06:44:12;102214.41;;;8.95;61.36
37694;BME280;23531;50.122;8.644;2023-02-04T06:46:14;102217.78;;;8.97;61.83
37694;BME280;23531;50.122;8.644;2023-02-04T06:48:16;102222.34;;;9.05;61.63
37694;BME280;23531;50.122;8.644;2023-02-04T06:50:17;102220.16;;;9.00;61.74
37694;BME280;23531;50.122;8.644;2023-02-04T06:52:19;102229.19;;;8.99;61.62
37694;BME280;23531;50.122;8.644;2023-02-04T06:54:20;102227.13;;;8.93;61.86
37694;BME280;23531;50.122;8.644;2023-02-04T06:56:22;102222.44;;;8.95;61.99
37694;BME280;23531;50.122;8.644;2023-02-04T06:58:23;102233.03;;;8.97;61.96
37694;BME280;23531;50.122;8.644;2023-02-04T07:00:24;102232.56;;;9.01;62.04
37694;BME280;23531;50.122;8.644;2023-02-04T07:02:27;102237.47;;;9.06;62.23
37694;BME280;23531;50.122;8.644;2023-02-04T07:04:28;102238.59;;;9.03;62.40
37694;BME280;23531;50.122;8.644;2023-02-04T07:06:30;102240.00;;;9.07;62.46
37694;BME280;23531;50.122;8.644;2023-02-04T07:08:31;102234.88;;;8.96;62.47
37694;BME280;23531;50.122;8.644;2023-02-04T07:10:32;102241.91;;;8.97;62.79
37694;BME280;23531;50.122;8.644;2023-02-04T07:12:34;102242.63;;;8.99;62.40
37694;BME280;23531;50.122;8.644;2023-02-04T07:14:35;102249.50;;;8.84;62.75
37694;BME280;23531;50.122;8.644;2023-02-04T07:16:36;102259.94;;;8.87;63.43
37694;BME280;23531;50.122;8.644;2023-02-04T07:18:39;102270.03;;;8.93;63.24
37694;BME280;23531;50.122;8.644;2023-02-04T07:20:40;102265.78;;;9.00;63.45
37694;BME280;23531;50.122;8.644;2023-02-04T07:22:41;102280.72;;;8.85;63.20
37694;BME280;23531;50.122;8.644;2023-02-04T07:24:43;102286.47;;;8.90;63.69
37694;BME280;23531;50.122;8.644;2023-02-04T07:26:44;102282.47;;;8.94;63.63
37694;BME280;23531;50.122;8.644;2023-02-04T07:28:45;102287.47;;;8.89;63.50
37694;BME280;23531;50.122;8.644;2023-02-04T07:30:47;102288.75;;;8.85;63.71
37694;BME280;23531;50.122;8.644;2023-02-04T07:32:49;102283.31;;;8.77;63.88
37694;BME280;23531;50.122;8.644;2023-02-04T07:34:51;102291.75;;;8.82;64.01
37694;BME280;23531;50.122;8.644;2023-02-04T07:36:53;102289.69;;;8.76;63.73
37694;BME280;23531;50.122;8.644;2023-02-04T07:38:54;102290.28;;;8.70;64.40
37694;BME280;23531;50.122;8.644;2023-02-04T07:40:55;102295.13;;;8.66;64.43
37694;BME280;23531;50.122;8.644;2023-02-04T07:42:57;102296.34;;;8.72;64.61
37694;BME280;23531;50.122;8.644;2023-02-04T07:44:58;102307.97;;;8.81;64.55
37694;BME280;23531;50.122;8.644;2023-02-04T07:47:00;102302.63;;;8.81;64.44
37694;BME280;23531;50.122;8.644;2023-02-04T07:49:01;102305.28;;;8.81;64.52
37694;BME280;23531;50.122;8.644;2023-02-04T07:51:04;102318.88;;;8.79;64.69
37694;BME280;23531;50.122;8.644;2023-02-04T07:53:05;102312.53;;;8.80;64.52
37694;BME280;23531;50.122;8.644;2023-02-04T07:55:07;102318.41;;;8.84;64.50
37694;BME280;23531;50.122;8.644;2023-02-04T07:57:08;102331.47;;;8.79;64.50
37694;BME280;23531;50.122;8.644;2023-02-04T07:59:09;102326.09;;;8.79;64.68
37694;BME280;23531;50.122;8.644;2023-02-04T08:01:10;102328.91;;;8.77;64.92
37694;BME280;23531;50.122;8.644;2023-02-04T08:03:12;102328.78;;;8.79;65.09
37694;BME280;23531;50.122;8.644;2023-02-04T08:05:13;102334.81;;;8.81;65.00
37694;BME280;23531;50.122;8.644;2023-02-04T08:07:16;102341.00;;;8.81;65.22
37694;BME280;23531;50.122;8.644;2023-02-04T08:09:17;102339.34;;;8.80;65.29
37694;BME280;23531;50.122;8.644;2023-02-04T08:11:21;102348.84;;;8.92;65.43
37694;BME280;23531;50.122;8.644;2023-02-04T08:13:22;102336.22;;;9.02;65.54
37694;BME280;23531;50.122;8.644;2023-02-04T08:15:24;102342.47;;;8.93;65.43
37694;BME280;23531;50.122;8.644;2023-02-04T08:17:26;102348.00;;;8.92;65.84
37694;BME280;23531;50.122;8.644;2023-02-04T08:19:27;102352.63;;;8.99;65.38
37694;BME280;23531;50.122;8.644;2023-02-04T08:21:28;102349.47;;;9.04;65.23
37694;BME280;23531;50.122;8.644;2023-02-04T08:23:31;102349.84;;;9.09;65.51
37694;BME280;23531;50.122;8.644;2023-02-04T08:25:33;102352.41;;;9.10;65.34
37694;BME280;23531;50.122;8.644;2023-02-04T08:27:34;102358.50;;;9.03;65.13
37694;BME280;23531;50.122;8.644;2023-02-04T08:29:35;102357.22;;;9.07;65.04
37694;BME280;23531;50.122;8.644;2023-02-04T08:31:37;102365.88;;;9.01;65.11
37694;BME280;23531;50.122;8.644;2023-02-04T08:33:38;102366.81;;;9.09;64.87
37694;BME280;23531;50.122;8.644;2023-02-04T08:35:40;102366.72;;;9.19;64.87
37694;BME280;23531;50.122;8.644;2023-02-04T08:37:41;102368.41;;;9.20;64.81
37694;BME280;23531;50.122;8.644;2023-02-04T08:39:44;102375.22;;;8.97;64.25
37694;BME280;23531;50.122;8.644;2023-02-04T08:41:46;102384.13;;;8.97;65.33
37694;BME280;23531;50.122;8.644;2023-02-04T08:43:49;102382.59;;;9.13;65.21
37694;BME280;23531;50.122;8.644;2023-02-04T08:45:51;102382.69;;;9.21;65.02
37694;BME280;23531;50.122;8.644;2023-02-04T08:47:52;102385.16;;;9.14;64.57
37694;BME280;23531;50.122;8.644;2023-02-04T08:49:53;102385.81;;;9.16;64.95
37694;BME280;23531;50.122;8.644;2023-02-04T08:51:55;102386.50;;;9.18;64.32
37694;BME280;23531;50.122;8.644;2023-02-04T08:53:56;102393.72;;;9.18;64.81
37694;BME280;23531;50.122;8.644;2023-02-04T08:55:59;102387.66;;;9.33;64.75
37694;BME280;23531;50.122;8.644;2023-02-04T08:58:00;102394.72;;;9.34;64.21
37694;BME280;23531;50.122;8.644;2023-02-04T09:00:02;102390.88;;;9.37;64.21
37694;BME280;23531;50.122;8.644;2023-02-04T09:02:03;102402.84;;;9.42;63.97
37694;BME280;23531;50.122;8.644;2023-02-04T09:04:05;102395.63;;;9.43;64.15
37694;BME280;23531;50.122;8.644;2023-02-04T09:06:06;102402.41;;;9.47;64.03
37694;BME280;23531;50.122;8.644;2023-02-04T09:08:08;102402.59;;;9.54;64.15
37694;BME280;23531;50.122;8.644;2023-02-04T09:10:09;102399.78;;;9.55;63.88
37694;BME280;23531;50.122;8.644;2023-02-04T09:12:12;102403.16;;;9.57;63.74
37694;BME280;23531;50.122;8.644;2023-02-04T09:14:13;102406.28;;;9.53;63.63
37694;BME280;23531;50.122;8.644;2023-02-04T09:16:14;102407.69;;;9.57;63.18
37694;BME280;23531;50.122;8.644;2023-02-04T09:18:17;102402.75;;;9.52;62.60
37694;BME280;23531;50.122;8.644;2023-02-04T09:20:21;102414.88;;;9.56;62.63
37694;BME280;23531;50.122;8.644;2023-02-04T09:22:22;102409.53;;;9.56;62.06
37694;BME280;23531;50.122;8.644;2023-02-04T09:24:23;102409.44;;;9.48;61.93
37694;BME280;23531;50.122;8.644;2023-02-04T09:26:24;102410.50;;;9.55;62.48
37694;BME280;23531;50.122;8.644;2023-02-04T09:28:27;102415.59;;;9.58;62.43
37694;BME280;23531;50.122;8.644;2023-02-04T09:30:28;102413.81;;;9.67;62.23
37694;BME280;23531;50.122;8.644;2023-02-04T09:32:30;102417.09;;;9.61;61.77
37694;BME280;23531;50.122;8.644;2023-02-04T09:34:31;102417.63;;;9.64;61.83
37694;BME280;23531;50.122;8.644;2023-02-04T09:36:32;102416.78;;;9.64;61.70
37694;BME280;23531;50.122;8.644;2023-02-04T09:38:36;102418.31;;;9.66;61.59
37694;BME280;23531;50.122;8.644;2023-02-04T09:40:40;102427.16;;;9.23;61.48
37694;BME280;23531;50.122;8.644;2023-02-04T09:42:42;102429.84;;;9.23;61.87
37694;BME280;23531;50.122;8.644;2023-02-04T09:44:45;102430.38;;;8.82;61.54
37694;BME280;23531;50.122;8.644;2023-02-04T09:46:47;102430.28;;;8.73;62.45
37694;BME280;23531;50.122;8.644;2023-02-04T09:48:49;102440.38;;;8.89;62.58
37694;BME280;23531;50.122;8.644;2023-02-04T09:50:51;102436.72;;;9.08;62.23
37694;BME280;23531;50.122;8.644;2023-02-04T09:52:53;102443.41;;;9.22;61.03
37694;BME280;23531;50.122;8.644;2023-02-04T09:54:55;102455.38;;;9.27;61.09
37694;BME280;23531;50.122;8.644;2023-02-04T09:56:56;102446.88;;;9.14;61.29
37694;BME280;23531;50.122;8.644;2023-02-04T09:58:58;102460.31;;;9.04;61.70
37694;BME280;23531;50.122;8.644;2023-02-04T10:01:04;102454.06;;;9.14;61.60
37694;BME280;23531;50.122;8.644;2023-02-04T10:03:10;102462.44;;;9.10;61.52
37694;BME280;23531;50.122;8.644;2023-02-04T10:05:14;102465.91;;;8.93;62.00
37694;BME280;23531;50.122;8.644;2023-02-04T10:07:16;102477.31;;;8.95;62.32
37694;BME280;23531;50.122;8.644;2023-02-04T10:09:21;102479.06;;;8.87;63.23
37694;BME280;23531;50.122;8.644;2023-02-04T10:11:22;102478.56;;;8.73;63.07
37694;BME280;23531;50.122;8.644;2023-02-04T10:13:29;102479.03;;;8.69;63.16
37694;BME280;23531;50.122;8.644;2023-02-04T10:15:31;102484.91;;;8.72;63.98
37694;BME280;23531;50.122;8.644;2023-02-04T10:17:34;102479.13;;;8.77;64.39
37694;BME280;23531;50.122;8.644;2023-02-04T10:19:35;102489.19;;;9.02;64.29
37694;BME280;23531;50.122;8.644;2023-02-04T10:21:38;102499.63;;;8.96;64.02
37694;BME280;23531;50.122;8.644;2023-02-04T10:23:40;102493.56;;;8.94;64.27
37694;BME280;23531;50.122;8.644;2023-02-04T10:25:42;102490.78;;;8.86;64.76
37694;BME280;23531;50.122;8.644;2023-02-04T10:27:46;102492.97;;;8.72;65.51
37694;BME280;23531;50.122;8.644;2023-02-04T10:29:54;102490.22;;;8.55;66.45
37694;BME280;23531;50.122;8.644;2023-02-04T10:31:56;102483.97;;;8.64;66.45
37694;BME280;23531;50.122;8.644;2023-02-04T10:34:03;102494.97;;;8.61;66.24
37694;BME280;23531;50.122;8.644;2023-02-04T10:36:05;102489.00;;;8.40;66.10
37694;BME280;23531;50.122;8.644;2023-02-04T10:38:08;102494.50;;;8.28;66.33
37694;BME280;23531;50.122;8.644;2023-02-04T10:40:24;102492.75;;;8.56;66.38
37694;BME280;23531;50.122;8.644;2023-02-04T10:42:26;102500.47;;;8.96;65.57
37694;BME280;23531;50.122;8.644;2023-02-04T10:44:29;102493.09;;;9.08;64.70
37694;BME280;23531;50.122;8.644;2023-02-04T10:46:30;102490.34;;;9.18;64.48